Aeroporto :
LOGIN :

Iscrizione | Disclaimer

   EN    FR    IT 

 










Sommario :    VFR   VFR Marginale   IFR   IFR Intensivo   IFR Molto Intensivo
Visibilità : 
Base nubi : 
>= 8 km
>= 3000ft
5 / 8 km
1000 / 3000 ft
1500m / 5 km
500 / 1000 ft
800 / 1500m
200 / 500 ft
< 800m
< 200 ft
Simboli :   Temporali  Nebbia  Neve Forte  Precipitazioni Forti  Vento > 20 kt
SIGMETs :   Varie  Temporali  Ghiacco  Turbolenza  Onda orograficha  Ceneri Vulcaniche






- Altitudine del aeroporto : 76 ft
- Codice IATA : KID


ESMK - Kristianstad

ULTIMO METAR :
  • 121750Z 17007KT 7000 BR FEW022 BKN045 BKN054 03/03 Q0996

METARs OBSOLETI :
  • 121720Z 19006KT 6000 BR FEW021 SCT036 BKN049 03/03 Q0997
  • 121650Z 16005KT 7000 BR BKN042 03/03 Q0997
  • 121620Z 17003KT 7000 BR BKN042 02/02 Q0997
  • 121550Z VRB03KT 9999 BKN041 03/02 Q0997
  • 121520Z 19003KT 9999 FEW008 SCT045 03/03 Q0997

TAF TAF ESMK
Valido dal 12 a 18 ore il 12 a 21 ore UTC


121707Z 1218/1221 18005KT 9999 FEW008 BKN015
TEMPO 1218/1221 4000 -SHRA BR BKN006 SCT015TCU



MetMap, La meteo Aeronautica in un colpo d'occhio ! - Copyright ORBIFLY Dicembre 2007 - Disclaimer

ORBIFLY MET'MAP TEAM :

Programmazione e sviluppo : Alexandra Zaïnal
Concezione : Baudouin d'Aumeries
Aiuto per la programmazione : Marc-Olivier Méhu
Supporto tecnico e logistico : Manuel Goepfert
Aiuto per la traduzione : Arnaldo La Scala

Contatto : metmap@orbifly.com




FONTI E CREDITI :

   NOAA